Terminal Aerodrome Forecast
Issued by NWS Austin/San Antonio, TX

Home | Current Version | Previous Version | Text Only | Print | Product List | Glossary On
Versions: 1 2 3 4 5 6 7 8 9 10 11 12 13
000
FTUS44 KEWX 282300
TAFSAT
TAF
KSAT 282320Z 2900/3006 13015G20KT P6SM FEW060
     FM290200 13009KT P6SM SKC
     FM290900 14005KT P6SM OVC020
     FM291700 15008KT P6SM BKN035
     FM291900 12012KT P6SM BKN050=

USA.gov is the U.S. government's official web portal to all federal, state and local government web resources and services.